sensor_id;sensor_type;location;lat;lon;timestamp;P1;durP1;ratioP1;P2;durP2;ratioP2
59223;SDS011;45592;52.094;4.330;2022-09-09T00:03:56;10.00;;;5.80;;
59223;SDS011;45592;52.094;4.330;2022-09-09T00:06:32;15.32;;;6.47;;
59223;SDS011;45592;52.094;4.330;2022-09-09T00:09:07;11.85;;;6.70;;
59223;SDS011;45592;52.094;4.330;2022-09-09T00:14:13;13.60;;;6.82;;
59223;SDS011;45592;52.094;4.330;2022-09-09T00:16:55;12.18;;;6.47;;
59223;SDS011;45592;52.094;4.330;2022-09-09T00:19:34;15.93;;;6.72;;
59223;SDS011;45592;52.094;4.330;2022-09-09T00:22:15;15.30;;;6.85;;
59223;SDS011;45592;52.094;4.330;2022-09-09T00:24:52;16.90;;;7.22;;
59223;SDS011;45592;52.094;4.330;2022-09-09T00:27:36;15.93;;;7.38;;
59223;SDS011;45592;52.094;4.330;2022-09-09T00:30:26;15.75;;;7.55;;
59223;SDS011;45592;52.094;4.330;2022-09-09T00:32:59;16.20;;;8.38;;
59223;SDS011;45592;52.094;4.330;2022-09-09T00:37:58;15.32;;;8.10;;
59223;SDS011;45592;52.094;4.330;2022-09-09T00:40:35;15.80;;;7.90;;
59223;SDS011;45592;52.094;4.330;2022-09-09T00:43:06;14.45;;;8.68;;
59223;SDS011;45592;52.094;4.330;2022-09-09T00:48:17;14.85;;;8.13;;
59223;SDS011;45592;52.094;4.330;2022-09-09T00:50:53;17.65;;;9.07;;
59223;SDS011;45592;52.094;4.330;2022-09-09T00:53:28;19.67;;;9.90;;
59223;SDS011;45592;52.094;4.330;2022-09-09T00:58:43;20.33;;;10.70;;
59223;SDS011;45592;52.094;4.330;2022-09-09T01:01:15;18.80;;;11.95;;
59223;SDS011;45592;52.094;4.330;2022-09-09T01:03:54;21.90;;;13.65;;
59223;SDS011;45592;52.094;4.330;2022-09-09T01:06:31;23.88;;;12.90;;
59223;SDS011;45592;52.094;4.330;2022-09-09T01:14:37;23.38;;;12.80;;
59223;SDS011;45592;52.094;4.330;2022-09-09T01:26:03;22.45;;;12.05;;
59223;SDS011;45592;52.094;4.330;2022-09-09T01:28:37;21.23;;;11.82;;
59223;SDS011;45592;52.094;4.330;2022-09-09T01:31:04;22.15;;;11.80;;
59223;SDS011;45592;52.094;4.330;2022-09-09T01:33:32;20.02;;;10.65;;
59223;SDS011;45592;52.094;4.330;2022-09-09T01:36:02;17.85;;;10.18;;
59223;SDS011;45592;52.094;4.330;2022-09-09T01:40:57;17.30;;;9.63;;
59223;SDS011;45592;52.094;4.330;2022-09-09T01:43:23;18.10;;;9.00;;
59223;SDS011;45592;52.094;4.330;2022-09-09T01:45:51;15.13;;;8.40;;
59223;SDS011;45592;52.094;4.330;2022-09-09T01:48:19;16.17;;;7.53;;
59223;SDS011;45592;52.094;4.330;2022-09-09T01:50:47;14.32;;;7.90;;
59223;SDS011;45592;52.094;4.330;2022-09-09T01:53:13;18.10;;;7.55;;
59223;SDS011;45592;52.094;4.330;2022-09-09T01:55:42;12.75;;;7.15;;
59223;SDS011;45592;52.094;4.330;2022-09-09T02:01:09;16.63;;;6.60;;
59223;SDS011;45592;52.094;4.330;2022-09-09T02:03:51;11.82;;;6.85;;
59223;SDS011;45592;52.094;4.330;2022-09-09T02:06:26;12.25;;;5.93;;
59223;SDS011;45592;52.094;4.330;2022-09-09T02:08:56;11.20;;;5.75;;
59223;SDS011;45592;52.094;4.330;2022-09-09T02:11:25;12.02;;;5.03;;
59223;SDS011;45592;52.094;4.330;2022-09-09T02:13:53;12.85;;;4.63;;
59223;SDS011;45592;52.094;4.330;2022-09-09T02:16:26;14.07;;;5.10;;
59223;SDS011;45592;52.094;4.330;2022-09-09T02:21:59;9.27;;;4.38;;
59223;SDS011;45592;52.094;4.330;2022-09-09T02:24:27;11.48;;;4.40;;
59223;SDS011;45592;52.094;4.330;2022-09-09T02:27:00;8.63;;;3.60;;
59223;SDS011;45592;52.094;4.330;2022-09-09T02:29:30;13.13;;;3.72;;
59223;SDS011;45592;52.094;4.330;2022-09-09T02:32:00;8.98;;;3.10;;
59223;SDS011;45592;52.094;4.330;2022-09-09T02:34:30;7.68;;;2.47;;
59223;SDS011;45592;52.094;4.330;2022-09-09T02:36:58;7.22;;;2.90;;
59223;SDS011;45592;52.094;4.330;2022-09-09T02:39:27;7.85;;;2.88;;
59223;SDS011;45592;52.094;4.330;2022-09-09T02:41:52;9.32;;;3.40;;
59223;SDS011;45592;52.094;4.330;2022-09-09T02:44:18;7.70;;;3.13;;
59223;SDS011;45592;52.094;4.330;2022-09-09T02:46:48;11.25;;;3.05;;
59223;SDS011;45592;52.094;4.330;2022-09-09T02:51:59;9.05;;;2.58;;
59223;SDS011;45592;52.094;4.330;2022-09-09T02:54:31;7.15;;;2.35;;
59223;SDS011;45592;52.094;4.330;2022-09-09T02:57:06;9.25;;;2.63;;
59223;SDS011;45592;52.094;4.330;2022-09-09T02:59:36;7.80;;;2.35;;
59223;SDS011;45592;52.094;4.330;2022-09-09T03:02:01;6.93;;;2.38;;
59223;SDS011;45592;52.094;4.330;2022-09-09T03:04:27;8.80;;;2.75;;
59223;SDS011;45592;52.094;4.330;2022-09-09T03:06:52;6.65;;;2.22;;
59223;SDS011;45592;52.094;4.330;2022-09-09T03:09:18;8.43;;;2.33;;
59223;SDS011;45592;52.094;4.330;2022-09-09T03:11:43;7.65;;;2.30;;
59223;SDS011;45592;52.094;4.330;2022-09-09T03:14:08;7.95;;;2.35;;
59223;SDS011;45592;52.094;4.330;2022-09-09T03:16:36;8.20;;;2.53;;
59223;SDS011;45592;52.094;4.330;2022-09-09T03:19:01;9.32;;;2.47;;
59223;SDS011;45592;52.094;4.330;2022-09-09T03:21:27;8.00;;;2.47;;
59223;SDS011;45592;52.094;4.330;2022-09-09T03:23:52;7.35;;;1.90;;
59223;SDS011;45592;52.094;4.330;2022-09-09T03:26:17;8.40;;;2.30;;
59223;SDS011;45592;52.094;4.330;2022-09-09T03:28:43;8.02;;;2.47;;
59223;SDS011;45592;52.094;4.330;2022-09-09T03:31:09;7.40;;;2.47;;
59223;SDS011;45592;52.094;4.330;2022-09-09T03:33:36;9.68;;;2.60;;
59223;SDS011;45592;52.094;4.330;2022-09-09T03:36:02;6.43;;;2.58;;
59223;SDS011;45592;52.094;4.330;2022-09-09T03:38:28;9.73;;;2.42;;
59223;SDS011;45592;52.094;4.330;2022-09-09T03:40:55;9.65;;;2.45;;
59223;SDS011;45592;52.094;4.330;2022-09-09T03:43:25;8.60;;;2.38;;
59223;SDS011;45592;52.094;4.330;2022-09-09T03:45:52;7.45;;;2.53;;
59223;SDS011;45592;52.094;4.330;2022-09-09T03:48:21;8.57;;;2.50;;
59223;SDS011;45592;52.094;4.330;2022-09-09T03:50:51;8.25;;;2.40;;
59223;SDS011;45592;52.094;4.330;2022-09-09T03:53:19;10.25;;;2.17;;
59223;SDS011;45592;52.094;4.330;2022-09-09T03:55:46;8.45;;;2.80;;
59223;SDS011;45592;52.094;4.330;2022-09-09T03:58:12;8.98;;;2.08;;
59223;SDS011;45592;52.094;4.330;2022-09-09T04:00:39;6.07;;;2.05;;
59223;SDS011;45592;52.094;4.330;2022-09-09T04:03:11;11.80;;;2.38;;
59223;SDS011;45592;52.094;4.330;2022-09-09T04:05:37;12.63;;;2.58;;
59223;SDS011;45592;52.094;4.330;2022-09-09T04:08:07;8.85;;;2.30;;
59223;SDS011;45592;52.094;4.330;2022-09-09T04:10:33;9.40;;;2.60;;
59223;SDS011;45592;52.094;4.330;2022-09-09T04:13:01;11.10;;;2.65;;
59223;SDS011;45592;52.094;4.330;2022-09-09T04:15:26;8.40;;;2.90;;
59223;SDS011;45592;52.094;4.330;2022-09-09T04:17:53;6.38;;;2.10;;
59223;SDS011;45592;52.094;4.330;2022-09-09T04:20:18;8.50;;;2.72;;
59223;SDS011;45592;52.094;4.330;2022-09-09T04:22:44;7.60;;;2.38;;
59223;SDS011;45592;52.094;4.330;2022-09-09T04:25:09;10.23;;;2.13;;
59223;SDS011;45592;52.094;4.330;2022-09-09T04:27:35;9.63;;;2.05;;
59223;SDS011;45592;52.094;4.330;2022-09-09T04:30:00;9.13;;;2.35;;
59223;SDS011;45592;52.094;4.330;2022-09-09T04:32:25;8.15;;;2.13;;
59223;SDS011;45592;52.094;4.330;2022-09-09T04:34:53;11.02;;;2.38;;
59223;SDS011;45592;52.094;4.330;2022-09-09T04:37:19;7.78;;;2.25;;
59223;SDS011;45592;52.094;4.330;2022-09-09T04:39:44;7.13;;;2.33;;
59223;SDS011;45592;52.094;4.330;2022-09-09T04:42:10;8.52;;;2.53;;
59223;SDS011;45592;52.094;4.330;2022-09-09T04:44:37;8.70;;;2.20;;
59223;SDS011;45592;52.094;4.330;2022-09-09T04:47:02;8.50;;;2.30;;
59223;SDS011;45592;52.094;4.330;2022-09-09T04:49:27;7.32;;;2.35;;
59223;SDS011;45592;52.094;4.330;2022-09-09T04:51:53;8.02;;;2.28;;
59223;SDS011;45592;52.094;4.330;2022-09-09T04:54:18;10.50;;;2.60;;
59223;SDS011;45592;52.094;4.330;2022-09-09T04:56:44;8.18;;;2.85;;
59223;SDS011;45592;52.094;4.330;2022-09-09T04:59:09;8.43;;;2.65;;
59223;SDS011;45592;52.094;4.330;2022-09-09T05:01:34;9.57;;;2.47;;
59223;SDS011;45592;52.094;4.330;2022-09-09T05:04:01;8.73;;;2.35;;
59223;SDS011;45592;52.094;4.330;2022-09-09T05:06:27;10.88;;;2.47;;
59223;SDS011;45592;52.094;4.330;2022-09-09T05:08:55;7.65;;;2.58;;
59223;SDS011;45592;52.094;4.330;2022-09-09T05:11:21;9.25;;;2.35;;
59223;SDS011;45592;52.094;4.330;2022-09-09T05:13:52;10.52;;;2.67;;
59223;SDS011;45592;52.094;4.330;2022-09-09T05:16:18;8.50;;;2.80;;
59223;SDS011;45592;52.094;4.330;2022-09-09T05:18:44;11.18;;;2.80;;
59223;SDS011;45592;52.094;4.330;2022-09-09T05:21:14;8.20;;;2.58;;
59223;SDS011;45592;52.094;4.330;2022-09-09T05:23:41;9.27;;;2.70;;
59223;SDS011;45592;52.094;4.330;2022-09-09T05:26:07;7.90;;;2.50;;
59223;SDS011;45592;52.094;4.330;2022-09-09T05:28:36;7.20;;;2.55;;
59223;SDS011;45592;52.094;4.330;2022-09-09T05:31:03;8.70;;;2.85;;
59223;SDS011;45592;52.094;4.330;2022-09-09T05:33:30;8.73;;;3.40;;
59223;SDS011;45592;52.094;4.330;2022-09-09T05:36:00;10.50;;;2.83;;
59223;SDS011;45592;52.094;4.330;2022-09-09T05:38:29;15.40;;;3.85;;
59223;SDS011;45592;52.094;4.330;2022-09-09T05:40:55;11.48;;;3.95;;
59223;SDS011;45592;52.094;4.330;2022-09-09T05:43:21;9.70;;;3.50;;
59223;SDS011;45592;52.094;4.330;2022-09-09T05:45:47;10.13;;;3.38;;
59223;SDS011;45592;52.094;4.330;2022-09-09T05:48:14;11.77;;;3.53;;
59223;SDS011;45592;52.094;4.330;2022-09-09T05:50:41;9.43;;;3.45;;
59223;SDS011;45592;52.094;4.330;2022-09-09T05:53:07;10.18;;;3.15;;
59223;SDS011;45592;52.094;4.330;2022-09-09T05:55:33;11.85;;;3.75;;
59223;SDS011;45592;52.094;4.330;2022-09-09T05:57:58;8.90;;;3.50;;
59223;SDS011;45592;52.094;4.330;2022-09-09T06:00:24;13.10;;;3.45;;
59223;SDS011;45592;52.094;4.330;2022-09-09T06:02:51;8.23;;;3.20;;
59223;SDS011;45592;52.094;4.330;2022-09-09T06:05:17;11.13;;;3.28;;
59223;SDS011;45592;52.094;4.330;2022-09-09T06:07:43;10.20;;;3.33;;
59223;SDS011;45592;52.094;4.330;2022-09-09T06:10:09;13.02;;;4.07;;
59223;SDS011;45592;52.094;4.330;2022-09-09T06:12:35;9.13;;;3.35;;
59223;SDS011;45592;52.094;4.330;2022-09-09T06:15:01;13.52;;;3.30;;
59223;SDS011;45592;52.094;4.330;2022-09-09T06:17:26;14.32;;;4.78;;
59223;SDS011;45592;52.094;4.330;2022-09-09T06:19:52;11.50;;;3.60;;
59223;SDS011;45592;52.094;4.330;2022-09-09T06:22:18;12.40;;;4.30;;
59223;SDS011;45592;52.094;4.330;2022-09-09T06:24:43;10.27;;;3.90;;
59223;SDS011;45592;52.094;4.330;2022-09-09T06:27:09;9.52;;;4.55;;
59223;SDS011;45592;52.094;4.330;2022-09-09T06:29:35;10.98;;;4.47;;
59223;SDS011;45592;52.094;4.330;2022-09-09T06:32:01;12.60;;;4.90;;
59223;SDS011;45592;52.094;4.330;2022-09-09T06:34:28;10.90;;;5.03;;
59223;SDS011;45592;52.094;4.330;2022-09-09T06:36:53;16.70;;;5.68;;
59223;SDS011;45592;52.094;4.330;2022-09-09T06:39:19;14.32;;;6.10;;
59223;SDS011;45592;52.094;4.330;2022-09-09T06:41:44;15.07;;;6.03;;
59223;SDS011;45592;52.094;4.330;2022-09-09T06:44:10;16.25;;;6.03;;
59223;SDS011;45592;52.094;4.330;2022-09-09T06:46:36;11.88;;;5.30;;
59223;SDS011;45592;52.094;4.330;2022-09-09T06:49:03;13.98;;;5.28;;
59223;SDS011;45592;52.094;4.330;2022-09-09T06:51:33;14.05;;;6.10;;
59223;SDS011;45592;52.094;4.330;2022-09-09T06:54:00;10.45;;;5.05;;
59223;SDS011;45592;52.094;4.330;2022-09-09T06:58:57;11.63;;;6.13;;
59223;SDS011;45592;52.094;4.330;2022-09-09T07:01:27;12.23;;;5.38;;
59223;SDS011;45592;52.094;4.330;2022-09-09T07:03:56;12.68;;;6.15;;
59223;SDS011;45592;52.094;4.330;2022-09-09T07:06:27;13.30;;;5.75;;
59223;SDS011;45592;52.094;4.330;2022-09-09T07:08:55;16.27;;;5.43;;
59223;SDS011;45592;52.094;4.330;2022-09-09T07:11:28;16.27;;;6.03;;
59223;SDS011;45592;52.094;4.330;2022-09-09T07:13:59;16.23;;;6.05;;
59223;SDS011;45592;52.094;4.330;2022-09-09T07:16:25;14.80;;;5.80;;
59223;SDS011;45592;52.094;4.330;2022-09-09T07:18:52;10.73;;;5.10;;
59223;SDS011;45592;52.094;4.330;2022-09-09T07:21:20;15.55;;;5.53;;
59223;SDS011;45592;52.094;4.330;2022-09-09T07:23:46;17.73;;;5.80;;
59223;SDS011;45592;52.094;4.330;2022-09-09T07:26:12;14.73;;;5.65;;
59223;SDS011;45592;52.094;4.330;2022-09-09T07:28:40;9.93;;;4.90;;
59223;SDS011;45592;52.094;4.330;2022-09-09T07:31:07;13.43;;;5.72;;
59223;SDS011;45592;52.094;4.330;2022-09-09T07:33:38;12.43;;;5.53;;
59223;SDS011;45592;52.094;4.330;2022-09-09T07:36:15;15.30;;;5.68;;
59223;SDS011;45592;52.094;4.330;2022-09-09T07:38:43;13.55;;;5.55;;
59223;SDS011;45592;52.094;4.330;2022-09-09T07:41:18;15.20;;;5.82;;
59223;SDS011;45592;52.094;4.330;2022-09-09T07:43:44;12.23;;;5.60;;
59223;SDS011;45592;52.094;4.330;2022-09-09T07:46:11;12.52;;;5.35;;
59223;SDS011;45592;52.094;4.330;2022-09-09T07:48:38;13.77;;;5.97;;
59223;SDS011;45592;52.094;4.330;2022-09-09T07:51:09;12.40;;;5.57;;
59223;SDS011;45592;52.094;4.330;2022-09-09T07:53:38;9.45;;;5.32;;
59223;SDS011;45592;52.094;4.330;2022-09-09T07:56:04;14.77;;;6.13;;
59223;SDS011;45592;52.094;4.330;2022-09-09T07:58:31;19.58;;;6.57;;
59223;SDS011;45592;52.094;4.330;2022-09-09T08:00:56;15.07;;;6.07;;
59223;SDS011;45592;52.094;4.330;2022-09-09T08:03:22;15.10;;;6.03;;
59223;SDS011;45592;52.094;4.330;2022-09-09T08:05:48;11.40;;;5.47;;
59223;SDS011;45592;52.094;4.330;2022-09-09T08:08:14;10.48;;;5.05;;
59223;SDS011;45592;52.094;4.330;2022-09-09T08:10:40;12.68;;;5.00;;
59223;SDS011;45592;52.094;4.330;2022-09-09T08:13:05;15.73;;;5.10;;
59223;SDS011;45592;52.094;4.330;2022-09-09T08:15:31;15.65;;;5.53;;
59223;SDS011;45592;52.094;4.330;2022-09-09T08:17:57;13.13;;;6.18;;
59223;SDS011;45592;52.094;4.330;2022-09-09T08:20:22;12.25;;;4.43;;
59223;SDS011;45592;52.094;4.330;2022-09-09T08:22:48;13.30;;;5.43;;
59223;SDS011;45592;52.094;4.330;2022-09-09T08:25:15;15.85;;;4.88;;
59223;SDS011;45592;52.094;4.330;2022-09-09T08:27:40;11.82;;;4.20;;
59223;SDS011;45592;52.094;4.330;2022-09-09T08:30:06;16.58;;;5.30;;
59223;SDS011;45592;52.094;4.330;2022-09-09T08:32:32;13.18;;;4.70;;
59223;SDS011;45592;52.094;4.330;2022-09-09T08:34:57;14.93;;;4.78;;
59223;SDS011;45592;52.094;4.330;2022-09-09T08:37:22;10.95;;;4.68;;
59223;SDS011;45592;52.094;4.330;2022-09-09T08:39:48;15.60;;;5.97;;
59223;SDS011;45592;52.094;4.330;2022-09-09T08:45:29;9.93;;;4.60;;
59223;SDS011;45592;52.094;4.330;2022-09-09T08:51:00;13.40;;;4.75;;
59223;SDS011;45592;52.094;4.330;2022-09-09T08:53:34;12.07;;;4.20;;
59223;SDS011;45592;52.094;4.330;2022-09-09T08:56:12;13.75;;;4.75;;
59223;SDS011;45592;52.094;4.330;2022-09-09T08:58:44;15.20;;;4.70;;
59223;SDS011;45592;52.094;4.330;2022-09-09T09:12:23;10.40;;;3.95;;
59223;SDS011;45592;52.094;4.330;2022-09-09T09:14:51;11.57;;;5.35;;
59223;SDS011;45592;52.094;4.330;2022-09-09T09:17:18;13.70;;;5.95;;
59223;SDS011;45592;52.094;4.330;2022-09-09T09:19:45;9.60;;;4.85;;
59223;SDS011;45592;52.094;4.330;2022-09-09T09:24:52;10.80;;;5.10;;
59223;SDS011;45592;52.094;4.330;2022-09-09T09:30:14;14.55;;;5.00;;
59223;SDS011;45592;52.094;4.330;2022-09-09T09:32:44;11.80;;;5.53;;
59223;SDS011;45592;52.094;4.330;2022-09-09T09:35:18;11.77;;;4.35;;
59223;SDS011;45592;52.094;4.330;2022-09-09T09:37:44;9.82;;;4.50;;
59223;SDS011;45592;52.094;4.330;2022-09-09T09:40:20;11.95;;;5.10;;
59223;SDS011;45592;52.094;4.330;2022-09-09T09:42:57;11.23;;;4.78;;
59223;SDS011;45592;52.094;4.330;2022-09-09T09:45:34;9.90;;;4.55;;
59223;SDS011;45592;52.094;4.330;2022-09-09T09:48:08;9.52;;;3.88;;
59223;SDS011;45592;52.094;4.330;2022-09-09T09:50:35;11.32;;;5.03;;
59223;SDS011;45592;52.094;4.330;2022-09-09T09:53:18;14.07;;;5.10;;
59223;SDS011;45592;52.094;4.330;2022-09-09T09:55:52;17.38;;;6.15;;
59223;SDS011;45592;52.094;4.330;2022-09-09T09:58:22;12.93;;;5.43;;
59223;SDS011;45592;52.094;4.330;2022-09-09T10:00:50;17.15;;;5.72;;
59223;SDS011;45592;52.094;4.330;2022-09-09T10:03:30;19.40;;;6.15;;
59223;SDS011;45592;52.094;4.330;2022-09-09T10:05:57;17.67;;;6.03;;
59223;SDS011;45592;52.094;4.330;2022-09-09T10:08:23;14.57;;;5.90;;
59223;SDS011;45592;52.094;4.330;2022-09-09T10:11:07;15.25;;;5.72;;
59223;SDS011;45592;52.094;4.330;2022-09-09T10:19:32;12.18;;;5.47;;
59223;SDS011;45592;52.094;4.330;2022-09-09T10:33:30;13.07;;;5.35;;
59223;SDS011;45592;52.094;4.330;2022-09-09T10:36:14;20.15;;;6.93;;
59223;SDS011;45592;52.094;4.330;2022-09-09T10:39:00;15.07;;;6.53;;
59223;SDS011;45592;52.094;4.330;2022-09-09T10:41:40;16.70;;;7.47;;
59223;SDS011;45592;52.094;4.330;2022-09-09T10:44:18;18.80;;;8.20;;
59223;SDS011;45592;52.094;4.330;2022-09-09T10:46:58;13.15;;;7.40;;
59223;SDS011;45592;52.094;4.330;2022-09-09T10:57:34;15.52;;;7.40;;
59223;SDS011;45592;52.094;4.330;2022-09-09T11:00:06;14.80;;;7.07;;
59223;SDS011;45592;52.094;4.330;2022-09-09T11:02:40;15.25;;;7.07;;
59223;SDS011;45592;52.094;4.330;2022-09-09T11:07:51;12.10;;;7.10;;
59223;SDS011;45592;52.094;4.330;2022-09-09T11:10:46;16.83;;;7.20;;
59223;SDS011;45592;52.094;4.330;2022-09-09T11:18:55;16.33;;;7.30;;
59223;SDS011;45592;52.094;4.330;2022-09-09T11:21:27;14.75;;;6.78;;
59223;SDS011;45592;52.094;4.330;2022-09-09T11:24:04;12.20;;;6.25;;
59223;SDS011;45592;52.094;4.330;2022-09-09T11:26:37;9.32;;;5.20;;
59223;SDS011;45592;52.094;4.330;2022-09-09T11:42:20;20.48;;;5.82;;
59223;SDS011;45592;52.094;4.330;2022-09-09T11:44:48;14.30;;;6.15;;
59223;SDS011;45592;52.094;4.330;2022-09-09T11:47:22;13.18;;;5.40;;
59223;SDS011;45592;52.094;4.330;2022-09-09T11:49:54;13.27;;;5.72;;
59223;SDS011;45592;52.094;4.330;2022-09-09T11:52:40;13.57;;;6.35;;
59223;SDS011;45592;52.094;4.330;2022-09-09T11:58:00;12.63;;;6.20;;
59223;SDS011;45592;52.094;4.330;2022-09-09T12:00:35;13.38;;;5.72;;
59223;SDS011;45592;52.094;4.330;2022-09-09T12:03:02;10.20;;;4.80;;
59223;SDS011;45592;52.094;4.330;2022-09-09T12:05:39;8.02;;;4.40;;
59223;SDS011;45592;52.094;4.330;2022-09-09T12:08:09;10.15;;;3.90;;
59223;SDS011;45592;52.094;4.330;2022-09-09T12:10:38;9.25;;;3.53;;
59223;SDS011;45592;52.094;4.330;2022-09-09T12:13:24;7.65;;;3.75;;
59223;SDS011;45592;52.094;4.330;2022-09-09T12:15:52;9.07;;;3.88;;
59223;SDS011;45592;52.094;4.330;2022-09-09T12:18:23;11.15;;;4.13;;
59223;SDS011;45592;52.094;4.330;2022-09-09T12:20:53;11.18;;;4.15;;
59223;SDS011;45592;52.094;4.330;2022-09-09T12:23:31;8.05;;;3.80;;
59223;SDS011;45592;52.094;4.330;2022-09-09T12:26:52;9.52;;;4.30;;
59223;SDS011;45592;52.094;4.330;2022-09-09T12:29:12;10.07;;;4.28;;
59223;SDS011;45592;52.094;4.330;2022-09-09T12:34:41;9.30;;;5.00;;
59223;SDS011;45592;52.094;4.330;2022-09-09T12:37:16;12.98;;;5.20;;
59223;SDS011;45592;52.094;4.330;2022-09-09T12:39:51;9.20;;;4.30;;
59223;SDS011;45592;52.094;4.330;2022-09-09T12:42:21;10.68;;;4.70;;
59223;SDS011;45592;52.094;4.330;2022-09-09T12:44:55;10.43;;;5.10;;
59223;SDS011;45592;52.094;4.330;2022-09-09T12:47:24;10.88;;;3.97;;
59223;SDS011;45592;52.094;4.330;2022-09-09T12:49:55;9.25;;;4.00;;
59223;SDS011;45592;52.094;4.330;2022-09-09T12:54:54;10.85;;;4.05;;
59223;SDS011;45592;52.094;4.330;2022-09-09T12:57:21;6.65;;;3.63;;
59223;SDS011;45592;52.094;4.330;2022-09-09T12:59:50;9.23;;;3.35;;
59223;SDS011;45592;52.094;4.330;2022-09-09T13:02:23;10.45;;;3.30;;
59223;SDS011;45592;52.094;4.330;2022-09-09T13:04:51;8.00;;;3.33;;
59223;SDS011;45592;52.094;4.330;2022-09-09T13:07:18;11.05;;;3.80;;
59223;SDS011;45592;52.094;4.330;2022-09-09T13:09:45;11.60;;;4.10;;
59223;SDS011;45592;52.094;4.330;2022-09-09T13:12:16;11.68;;;4.57;;
59223;SDS011;45592;52.094;4.330;2022-09-09T13:14:48;8.18;;;3.38;;
59223;SDS011;45592;52.094;4.330;2022-09-09T13:17:26;7.60;;;3.53;;
59223;SDS011;45592;52.094;4.330;2022-09-09T13:19:55;12.18;;;3.53;;
59223;SDS011;45592;52.094;4.330;2022-09-09T13:22:23;7.78;;;3.08;;
59223;SDS011;45592;52.094;4.330;2022-09-09T13:24:58;8.45;;;3.53;;
59223;SDS011;45592;52.094;4.330;2022-09-09T13:27:30;7.97;;;3.28;;
59223;SDS011;45592;52.094;4.330;2022-09-09T13:29:59;8.05;;;3.05;;
59223;SDS011;45592;52.094;4.330;2022-09-09T13:32:25;7.57;;;3.55;;
59223;SDS011;45592;52.094;4.330;2022-09-09T13:34:57;6.35;;;2.67;;
59223;SDS011;45592;52.094;4.330;2022-09-09T13:37:34;11.15;;;3.67;;
59223;SDS011;45592;52.094;4.330;2022-09-09T13:40:02;9.63;;;3.17;;
59223;SDS011;45592;52.094;4.330;2022-09-09T13:42:31;12.00;;;3.00;;
59223;SDS011;45592;52.094;4.330;2022-09-09T13:45:00;9.52;;;2.80;;
59223;SDS011;45592;52.094;4.330;2022-09-09T13:47:28;5.93;;;2.10;;
59223;SDS011;45592;52.094;4.330;2022-09-09T13:49:58;5.78;;;1.90;;
59223;SDS011;45592;52.094;4.330;2022-09-09T13:52:34;6.53;;;1.85;;
59223;SDS011;45592;52.094;4.330;2022-09-09T13:54:59;9.65;;;2.20;;
59223;SDS011;45592;52.094;4.330;2022-09-09T13:57:25;5.97;;;2.10;;
59223;SDS011;45592;52.094;4.330;2022-09-09T13:59:51;9.40;;;2.22;;
59223;SDS011;45592;52.094;4.330;2022-09-09T14:02:18;19.00;;;2.47;;
59223;SDS011;45592;52.094;4.330;2022-09-09T14:04:43;11.55;;;2.85;;
59223;SDS011;45592;52.094;4.330;2022-09-09T14:07:16;26.63;;;3.47;;
59223;SDS011;45592;52.094;4.330;2022-09-09T14:09:43;11.77;;;3.05;;
59223;SDS011;45592;52.094;4.330;2022-09-09T14:12:10;9.90;;;3.00;;
59223;SDS011;45592;52.094;4.330;2022-09-09T14:14:36;10.40;;;2.92;;
59223;SDS011;45592;52.094;4.330;2022-09-09T14:17:02;10.38;;;2.90;;
59223;SDS011;45592;52.094;4.330;2022-09-09T14:19:28;13.40;;;3.30;;
59223;SDS011;45592;52.094;4.330;2022-09-09T14:21:53;10.65;;;2.85;;
59223;SDS011;45592;52.094;4.330;2022-09-09T14:24:19;11.50;;;2.97;;
59223;SDS011;45592;52.094;4.330;2022-09-09T14:26:44;16.05;;;4.00;;
59223;SDS011;45592;52.094;4.330;2022-09-09T14:29:10;14.70;;;3.72;;
59223;SDS011;45592;52.094;4.330;2022-09-09T14:31:35;16.77;;;3.58;;
59223;SDS011;45592;52.094;4.330;2022-09-09T14:34:00;9.43;;;3.13;;
59223;SDS011;45592;52.094;4.330;2022-09-09T14:36:26;10.32;;;3.70;;
59223;SDS011;45592;52.094;4.330;2022-09-09T14:38:51;12.32;;;3.72;;
59223;SDS011;45592;52.094;4.330;2022-09-09T14:41:18;9.13;;;3.20;;
59223;SDS011;45592;52.094;4.330;2022-09-09T14:43:45;11.77;;;3.10;;
59223;SDS011;45592;52.094;4.330;2022-09-09T14:46:12;11.80;;;3.05;;
59223;SDS011;45592;52.094;4.330;2022-09-09T14:48:40;11.20;;;2.70;;
59223;SDS011;45592;52.094;4.330;2022-09-09T14:51:06;12.55;;;3.15;;
59223;SDS011;45592;52.094;4.330;2022-09-09T14:53:40;12.45;;;3.42;;
59223;SDS011;45592;52.094;4.330;2022-09-09T14:56:07;15.18;;;3.17;;
59223;SDS011;45592;52.094;4.330;2022-09-09T14:58:35;12.80;;;3.45;;
59223;SDS011;45592;52.094;4.330;2022-09-09T15:01:01;14.95;;;3.00;;
59223;SDS011;45592;52.094;4.330;2022-09-09T15:03:28;11.82;;;3.08;;
59223;SDS011;45592;52.094;4.330;2022-09-09T15:05:53;17.08;;;3.30;;
59223;SDS011;45592;52.094;4.330;2022-09-09T15:08:19;12.55;;;3.25;;
59223;SDS011;45592;52.094;4.330;2022-09-09T15:10:44;12.50;;;3.47;;
59223;SDS011;45592;52.094;4.330;2022-09-09T15:13:10;9.80;;;2.78;;
59223;SDS011;45592;52.094;4.330;2022-09-09T15:15:35;10.90;;;2.97;;
59223;SDS011;45592;52.094;4.330;2022-09-09T15:18:00;11.77;;;2.88;;
59223;SDS011;45592;52.094;4.330;2022-09-09T15:20:26;12.60;;;3.33;;
59223;SDS011;45592;52.094;4.330;2022-09-09T15:22:51;6.45;;;2.58;;
59223;SDS011;45592;52.094;4.330;2022-09-09T15:25:17;7.38;;;2.58;;
59223;SDS011;45592;52.094;4.330;2022-09-09T15:27:43;7.28;;;2.50;;
59223;SDS011;45592;52.094;4.330;2022-09-09T15:30:09;7.25;;;2.30;;
59223;SDS011;45592;52.094;4.330;2022-09-09T15:32:34;11.77;;;3.10;;
59223;SDS011;45592;52.094;4.330;2022-09-09T15:35:00;10.70;;;3.50;;
59223;SDS011;45592;52.094;4.330;2022-09-09T15:37:26;9.23;;;3.42;;
59223;SDS011;45592;52.094;4.330;2022-09-09T15:39:51;13.52;;;3.75;;
59223;SDS011;45592;52.094;4.330;2022-09-09T15:42:17;11.73;;;4.00;;
59223;SDS011;45592;52.094;4.330;2022-09-09T15:44:42;9.88;;;3.90;;
59223;SDS011;45592;52.094;4.330;2022-09-09T15:47:10;13.55;;;4.40;;
59223;SDS011;45592;52.094;4.330;2022-09-09T15:49:37;11.90;;;3.50;;
59223;SDS011;45592;52.094;4.330;2022-09-09T15:52:03;16.13;;;4.07;;
59223;SDS011;45592;52.094;4.330;2022-09-09T15:54:33;10.40;;;3.95;;
59223;SDS011;45592;52.094;4.330;2022-09-09T15:57:01;9.95;;;3.90;;
59223;SDS011;45592;52.094;4.330;2022-09-09T15:59:29;8.95;;;3.85;;
59223;SDS011;45592;52.094;4.330;2022-09-09T16:01:56;10.25;;;4.00;;
59223;SDS011;45592;52.094;4.330;2022-09-09T16:04:22;12.00;;;3.80;;
59223;SDS011;45592;52.094;4.330;2022-09-09T16:06:49;10.68;;;4.72;;
59223;SDS011;45592;52.094;4.330;2022-09-09T16:09:15;9.90;;;3.50;;
59223;SDS011;45592;52.094;4.330;2022-09-09T16:11:41;14.05;;;4.28;;
59223;SDS011;45592;52.094;4.330;2022-09-09T16:14:06;14.98;;;4.80;;
59223;SDS011;45592;52.094;4.330;2022-09-09T16:16:32;12.57;;;4.47;;
59223;SDS011;45592;52.094;4.330;2022-09-09T16:19:00;11.40;;;4.40;;
59223;SDS011;45592;52.094;4.330;2022-09-09T16:21:30;12.73;;;4.88;;
59223;SDS011;45592;52.094;4.330;2022-09-09T16:23:58;15.70;;;5.05;;
59223;SDS011;45592;52.094;4.330;2022-09-09T16:26:25;9.40;;;4.38;;
59223;SDS011;45592;52.094;4.330;2022-09-09T16:28:52;14.90;;;4.85;;
59223;SDS011;45592;52.094;4.330;2022-09-09T16:31:19;15.45;;;4.72;;
59223;SDS011;45592;52.094;4.330;2022-09-09T16:33:46;13.55;;;5.10;;
59223;SDS011;45592;52.094;4.330;2022-09-09T16:36:17;16.33;;;5.15;;
59223;SDS011;45592;52.094;4.330;2022-09-09T16:38:44;12.35;;;4.97;;
59223;SDS011;45592;52.094;4.330;2022-09-09T16:41:10;16.63;;;5.90;;
59223;SDS011;45592;52.094;4.330;2022-09-09T16:43:37;10.93;;;4.63;;
59223;SDS011;45592;52.094;4.330;2022-09-09T16:46:03;10.90;;;4.80;;
59223;SDS011;45592;52.094;4.330;2022-09-09T16:48:40;13.40;;;5.20;;